Check out our new BloomSky Weather System.

Active alerts


No alerts


Thunder radar  blitzortung!


Rain radar more information rain snow radar


Visit our other weather sites:

Template documentation
and downloads

And another site



Weather Underground History page Text

Daily Summary for March 16, 2017 Units:  Metric    English   Both
« Previous Day
Next Day »
Daily Weekly Monthly Yearly Custom
  High: Low: Average:
Temperature: 23.5 °C 12.3 °C 18.2 °C
Dew Point: 19.2 °C 11 °C 15.8 °C
Humidity: 94 % 74 % 86 %
Wind Speed: 20.9 km/h 0 km/h 5.8 km/h
Wind Gust: 25.7 km/h - -
Wind:- - SE
Pressure: 1026 hPa 1020.5 hPa -
Precipitation: 0 mm    
Historical Graphs
 
 
Tabular Data for March 16, 2017
Time Temperature Dew Point Pressure Wind Wind Speed Wind Gust Humidity Rainfall Rate (Hourly)
00:02 13.2 °C 11.3 °C 1026 hPa ESE 3.2 km/h 8 km/h 88 % 0 mm
00:07 13.2 °C 11.3 °C 1026 hPa ESE 4.8 km/h 8 km/h 88 % 0 mm
00:12 13.2 °C 11.3 °C 1026 hPa East 9.7 km/h 11.3 km/h 88 % 0 mm
00:17 13.2 °C 11.3 °C 1026 hPa ESE 4.8 km/h 11.3 km/h 88 % 0 mm
00:22 13.2 °C 11.3 °C 1026 hPa ESE 1.6 km/h 11.3 km/h 88 % 0 mm
00:27 13.2 °C 11.3 °C 1025.6 hPa SE 1.6 km/h 9.7 km/h 88 % 0 mm
00:32 13.2 °C 11.3 °C 1025.6 hPa ESE 3.2 km/h 8 km/h 88 % 0 mm
00:37 13.2 °C 11.3 °C 1025.6 hPa ESE 1.6 km/h 8 km/h 88 % 0 mm
00:42 13.2 °C 11.4 °C 1025.3 hPa ENE 3.2 km/h 8 km/h 89 % 0 mm
00:47 13.1 °C 11.3 °C 1025.3 hPa Calm   8 km/h 89 % 0 mm
00:52 13.1 °C 11.3 °C 1025.3 hPa ESE 4.8 km/h 8 km/h 89 % 0 mm
00:57 13 °C 11.2 °C 1025.3 hPa SE 1.6 km/h 8 km/h 89 % 0 mm
01:02 12.9 °C 11.1 °C 1025.3 hPa ESE 1.6 km/h 6.4 km/h 89 % 0 mm
01:07 12.9 °C 11.3 °C 1025.3 hPa SE 1.6 km/h 8 km/h 90 % 0 mm
01:12 12.8 °C 11.2 °C 1025.3 hPa ESE 1.6 km/h 8 km/h 90 % 0 mm
01:17 12.8 °C 11.2 °C 1025.3 hPa SSE 1.6 km/h 8 km/h 90 % 0 mm
01:22 12.8 °C 11.2 °C 1024.9 hPa Calm   8 km/h 90 % 0 mm
01:27 12.8 °C 11.2 °C 1024.9 hPa Calm   4.8 km/h 90 % 0 mm
01:32 12.8 °C 11.4 °C 1024.9 hPa Calm   4.8 km/h 91 % 0 mm
01:37 12.7 °C 11.1 °C 1024.9 hPa Calm   4.8 km/h 90 % 0 mm
01:42 12.6 °C 11.2 °C 1024.9 hPa Calm   3.2 km/h 91 % 0 mm
01:47 12.6 °C 11.2 °C 1024.9 hPa Calm   3.2 km/h 91 % 0 mm
01:52 12.6 °C 11.2 °C 1024.9 hPa Calm   3.2 km/h 91 % 0 mm
01:57 12.6 °C 11.2 °C 1024.9 hPa NNE 1.6 km/h 3.2 km/h 91 % 0 mm
02:02 12.5 °C 11.2 °C 1024.9 hPa Calm   4.8 km/h 92 % 0 mm
02:07 12.5 °C 11.2 °C 1024.9 hPa Calm   4.8 km/h 92 % 0 mm
02:12 12.5 °C 11.2 °C 1024.9 hPa Calm   4.8 km/h 92 % 0 mm
02:17 12.4 °C 11.1 °C 1024.9 hPa Calm   3.2 km/h 92 % 0 mm
02:22 12.3 °C 11 °C 1024.9 hPa Calm   1.6 km/h 92 % 0 mm
02:27 12.3 °C 11 °C 1024.9 hPa Calm   3.2 km/h 92 % 0 mm
02:32 12.3 °C 11 °C 1024.9 hPa Calm   4.8 km/h 92 % 0 mm
02:37 12.4 °C 11.1 °C 1024.9 hPa SE 1.6 km/h 6.4 km/h 92 % 0 mm
02:42 12.4 °C 11.3 °C 1024.9 hPa Calm   6.4 km/h 93 % 0 mm
02:47 12.5 °C 11.4 °C 1024.9 hPa Calm   6.4 km/h 93 % 0 mm
02:52 12.5 °C 11.4 °C 1024.9 hPa Calm   4.8 km/h 93 % 0 mm
02:57 12.6 °C 11.5 °C 1024.9 hPa Calm   3.2 km/h 93 % 0 mm
03:02 12.6 °C 11.5 °C 1024.9 hPa ENE 3.2 km/h 4.8 km/h 93 % 0 mm
03:07 12.7 °C 11.6 °C 1024.9 hPa East 1.6 km/h 4.8 km/h 93 % 0 mm
03:12 12.8 °C 11.7 °C 1024.9 hPa Calm   4.8 km/h 93 % 0 mm
03:17 12.8 °C 11.7 °C 1024.9 hPa Calm   4.8 km/h 93 % 0 mm
03:22 12.8 °C 11.7 °C 1024.9 hPa Calm   4.8 km/h 93 % 0 mm
03:27 12.8 °C 11.7 °C 1024.9 hPa NNE 1.6 km/h 4.8 km/h 93 % 0 mm
03:32 12.8 °C 11.7 °C 1024.6 hPa SE 1.6 km/h 3.2 km/h 93 % 0 mm
03:37 12.8 °C 11.7 °C 1024.6 hPa Calm   3.2 km/h 93 % 0 mm
03:42 12.8 °C 11.7 °C 1024.6 hPa East 1.6 km/h 4.8 km/h 93 % 0 mm
03:47 12.8 °C 11.7 °C 1024.6 hPa Calm   4.8 km/h 93 % 0 mm
03:52 12.9 °C 11.8 °C 1024.6 hPa Calm   4.8 km/h 93 % 0 mm
03:57 12.9 °C 11.8 °C 1024.3 hPa Calm   4.8 km/h 93 % 0 mm
04:02 13 °C 11.9 °C 1024.3 hPa East 1.6 km/h 3.2 km/h 93 % 0 mm
04:07 12.9 °C 11.8 °C 1024.3 hPa Calm   3.2 km/h 93 % 0 mm
04:12 12.8 °C 11.5 °C 1024.3 hPa Calm   3.2 km/h 92 % 0 mm
04:17 12.7 °C 11.4 °C 1024.3 hPa Calm   3.2 km/h 92 % 0 mm
04:22 12.6 °C 11.5 °C 1024.3 hPa Calm   1.6 km/h 93 % 0 mm
04:27 12.6 °C 11.5 °C 1024.3 hPa NE 1.6 km/h 1.6 km/h 93 % 0 mm
04:32 12.5 °C 11.4 °C 1024.3 hPa Calm   1.6 km/h 93 % 0 mm
04:37 12.5 °C 11.6 °C 1024.3 hPa Calm   1.6 km/h 94 % 0 mm
04:42 12.6 °C 11.7 °C 1024.3 hPa Calm   1.6 km/h 94 % 0 mm
04:47 12.6 °C 11.7 °C 1024.3 hPa ENE 1.6 km/h 1.6 km/h 94 % 0 mm
04:52 12.7 °C 11.8 °C 1024.3 hPa East 3.2 km/h 3.2 km/h 94 % 0 mm
04:57 12.7 °C 11.8 °C 1024.3 hPa Calm   3.2 km/h 94 % 0 mm
05:02 12.7 °C 11.8 °C 1024.3 hPa Calm   3.2 km/h 94 % 0 mm
05:07 12.7 °C 11.8 °C 1024.3 hPa Calm   3.2 km/h 94 % 0 mm
05:12 12.7 °C 11.8 °C 1024.3 hPa Calm   3.2 km/h 94 % 0 mm
05:17 12.8 °C 11.9 °C 1024.3 hPa East 1.6 km/h 4.8 km/h 94 % 0 mm
05:22 12.8 °C 11.9 °C 1024.3 hPa Calm   4.8 km/h 94 % 0 mm
05:27 12.9 °C 12 °C 1024.3 hPa Calm   4.8 km/h 94 % 0 mm
05:32 12.9 °C 12 °C 1024.3 hPa ESE 3.2 km/h 4.8 km/h 94 % 0 mm
05:37 13.1 °C 12.2 °C 1024.3 hPa Calm   4.8 km/h 94 % 0 mm
05:42 13.1 °C 12.2 °C 1024.3 hPa Calm   4.8 km/h 94 % 0 mm
05:48 13.2 °C 12.3 °C 1024.3 hPa Calm   4.8 km/h 94 % 0 mm
05:53 13.3 °C 12.4 °C 1024.3 hPa East 1.6 km/h 4.8 km/h 94 % 0 mm
05:58 13.3 °C 12.4 °C 1024.3 hPa Calm   4.8 km/h 94 % 0 mm
06:03 13.4 °C 12.5 °C 1024.3 hPa East 1.6 km/h 4.8 km/h 94 % 0 mm
06:08 13.4 °C 12.5 °C 1024.3 hPa ENE 3.2 km/h 4.8 km/h 94 % 0 mm
06:13 13.5 °C 12.4 °C 1024.3 hPa ESE 1.6 km/h 4.8 km/h 93 % 0 mm
06:18 13.6 °C 12.5 °C 1024.3 hPa Calm   4.8 km/h 93 % 0 mm
06:23 13.6 °C 12.5 °C 1024.3 hPa SE 3.2 km/h 6.4 km/h 93 % 0 mm
06:28 13.7 °C 12.6 °C 1024.3 hPa ENE 1.6 km/h 6.4 km/h 93 % 0 mm
06:33 13.7 °C 12.6 °C 1024.3 hPa ENE 3.2 km/h 6.4 km/h 93 % 0 mm
06:38 13.8 °C 12.7 °C 1024.3 hPa ENE 3.2 km/h 4.8 km/h 93 % 0 mm
06:43 13.8 °C 12.7 °C 1024.6 hPa Calm   4.8 km/h 93 % 0 mm
06:48 13.8 °C 12.7 °C 1024.6 hPa ESE 3.2 km/h 4.8 km/h 93 % 0 mm
06:53 13.9 °C 12.8 °C 1024.6 hPa East 3.2 km/h 6.4 km/h 93 % 0 mm
06:58 14 °C 12.9 °C 1024.6 hPa Calm   6.4 km/h 93 % 0 mm
07:03 14.1 °C 12.8 °C 1024.6 hPa Calm   6.4 km/h 92 % 0 mm
07:08 14.1 °C 12.8 °C 1024.6 hPa Calm   4.8 km/h 92 % 0 mm
07:13 14.1 °C 12.8 °C 1024.3 hPa ESE 1.6 km/h 8 km/h 92 % 0 mm
07:18 14.2 °C 12.9 °C 1024.3 hPa East 1.6 km/h 8 km/h 92 % 0 mm
07:23 14.3 °C 13 °C 1024.3 hPa SSE 4.8 km/h 8 km/h 92 % 0 mm
07:28 14.3 °C 13 °C 1024.3 hPa ESE 8 km/h 8 km/h 92 % 0 mm
07:33 14.3 °C 13 °C 1024.6 hPa Calm   9.7 km/h 92 % 0 mm
07:38 14.4 °C 13.1 °C 1024.6 hPa East 1.6 km/h 9.7 km/h 92 % 0 mm
07:43 14.4 °C 13.1 °C 1024.6 hPa Calm   9.7 km/h 92 % 0 mm
07:48 14.4 °C 13.1 °C 1024.6 hPa Calm   6.4 km/h 92 % 0 mm
07:53 14.6 °C 13.3 °C 1024.6 hPa Calm   6.4 km/h 92 % 0 mm
07:58 14.6 °C 13.3 °C 1024.6 hPa ENE 1.6 km/h 3.2 km/h 92 % 0 mm
08:03 14.7 °C 13.4 °C 1024.6 hPa ESE 3.2 km/h 4.8 km/h 92 % 0 mm
08:08 14.7 °C 13.4 °C 1024.6 hPa SE 4.8 km/h 4.8 km/h 92 % 0 mm
08:13 14.8 °C 13.5 °C 1024.6 hPa ESE 1.6 km/h 6.4 km/h 92 % 0 mm
08:18 14.9 °C 13.6 °C 1024.6 hPa SSE 3.2 km/h 8 km/h 92 % 0 mm
08:23 15 °C 13.7 °C 1024.9 hPa SE 1.6 km/h 8 km/h 92 % 0 mm
08:28 15.1 °C 13.8 °C 1024.9 hPa ESE 1.6 km/h 9.7 km/h 92 % 0 mm
08:33 15.2 °C 13.9 °C 1024.9 hPa ESE 1.6 km/h 9.7 km/h 92 % 0 mm
08:38 15.3 °C 14 °C 1024.9 hPa Calm   9.7 km/h 92 % 0 mm
08:43 15.4 °C 14.1 °C 1024.9 hPa ESE 4.8 km/h 8 km/h 92 % 0 mm
08:48 15.5 °C 14.2 °C 1024.9 hPa SE 3.2 km/h 9.7 km/h 92 % 0 mm
08:53 15.6 °C 14.3 °C 1024.9 hPa ESE 1.6 km/h 9.7 km/h 92 % 0 mm
08:58 15.7 °C 14.4 °C 1024.9 hPa ESE 1.6 km/h 9.7 km/h 92 % 0 mm
09:03 15.8 °C 14.5 °C 1024.9 hPa ENE 3.2 km/h 9.7 km/h 92 % 0 mm
09:08 15.9 °C 14.4 °C 1024.9 hPa ESE 3.2 km/h 9.7 km/h 91 % 0 mm
09:14 16.1 °C 14.6 °C 1024.9 hPa ESE 3.2 km/h 6.4 km/h 91 % 0 mm
09:19 16.2 °C 14.7 °C 1024.9 hPa ESE 4.8 km/h 6.4 km/h 91 % 0 mm
09:24 16.3 °C 14.8 °C 1024.9 hPa SE 1.6 km/h 6.4 km/h 91 % 0 mm
09:29 16.6 °C 15.1 °C 1024.9 hPa ENE 4.8 km/h 11.3 km/h 91 % 0 mm
09:34 16.7 °C 15.1 °C 1024.9 hPa ESE 4.8 km/h 14.5 km/h 90 % 0 mm
09:39 16.8 °C 15.1 °C 1025.3 hPa SE 1.6 km/h 14.5 km/h 90 % 0 mm
09:44 17 °C 15.3 °C 1025.3 hPa ESE 4.8 km/h 14.5 km/h 90 % 0 mm
09:49 17.2 °C 15.5 °C 1024.9 hPa SE 8 km/h 12.9 km/h 90 % 0 mm
09:54 17.3 °C 15.6 °C 1025.3 hPa SE 3.2 km/h 12.9 km/h 90 % 0 mm
09:59 17.5 °C 15.8 °C 1025.3 hPa SE 3.2 km/h 12.9 km/h 90 % 0 mm
10:04 17.6 °C 15.8 °C 1025.3 hPa ESE 4.8 km/h 12.9 km/h 89 % 0 mm
10:09 17.7 °C 15.9 °C 1025.3 hPa SE 4.8 km/h 12.9 km/h 89 % 0 mm
10:14 17.8 °C 16 °C 1025.3 hPa SSE 1.6 km/h 12.9 km/h 89 % 0 mm
10:19 18 °C 16 °C 1025.3 hPa SE 3.2 km/h 12.9 km/h 88 % 0 mm
10:24 18 °C 16 °C 1025.3 hPa NE 3.2 km/h 11.3 km/h 88 % 0 mm
10:29 18.2 °C 16.2 °C 1025.3 hPa NE 4.8 km/h 11.3 km/h 88 % 0 mm
10:34 18.3 °C 16.3 °C 1025.3 hPa East 4.8 km/h 11.3 km/h 88 % 0 mm
10:39 18.3 °C 16.1 °C 1025.3 hPa ENE 3.2 km/h 8 km/h 87 % 0 mm
10:44 18.4 °C 16.2 °C 1025.3 hPa East 1.6 km/h 8 km/h 87 % 0 mm
10:49 18.5 °C 16.5 °C 1025.3 hPa Calm   9.7 km/h 88 % 0 mm
10:54 18.7 °C 16.7 °C 1025.3 hPa ESE 4.8 km/h 9.7 km/h 88 % 0 mm
10:59 18.8 °C 16.6 °C 1025.3 hPa Calm   9.7 km/h 87 % 0 mm
11:04 18.9 °C 16.7 °C 1025.3 hPa East 6.4 km/h 8 km/h 87 % 0 mm
11:09 19.1 °C 16.9 °C 1025.3 hPa East 1.6 km/h 8 km/h 87 % 0 mm
11:14 19.2 °C 16.8 °C 1025.3 hPa Calm   8 km/h 86 % 0 mm
11:19 19.5 °C 17.3 °C 1025.3 hPa SSE 1.6 km/h 8 km/h 87 % 0 mm
11:24 19.8 °C 17.2 °C 1025.3 hPa ESE 4.8 km/h 8 km/h 85 % 0 mm
11:29 20 °C 17.4 °C 1025.3 hPa ESE 9.7 km/h 12.9 km/h 85 % 0 mm
11:34 20.2 °C 17.4 °C 1025.3 hPa SE 6.4 km/h 12.9 km/h 84 % 0 mm
11:39 20.3 °C 17.5 °C 1024.9 hPa ESE 9.7 km/h 12.9 km/h 84 % 0 mm
11:44 20.6 °C 17.8 °C 1024.9 hPa SE 3.2 km/h 14.5 km/h 84 % 0 mm
11:49 21 °C 17.8 °C 1024.9 hPa East 20.9 km/h 20.9 km/h 82 % 0 mm
11:54 21.1 °C 17.9 °C 1024.9 hPa ENE 4.8 km/h 20.9 km/h 82 % 0 mm
11:59 21.2 °C 17.8 °C 1024.9 hPa ESE 9.7 km/h 20.9 km/h 81 % 0 mm
12:04 21.3 °C 17.9 °C 1024.9 hPa SSE 8 km/h 20.9 km/h 81 % 0 mm
12:09 21.4 °C 18 °C 1024.9 hPa ESE 8 km/h 16.1 km/h 81 % 0 mm
12:14 21.6 °C 17.8 °C 1024.9 hPa SE 12.9 km/h 16.1 km/h 79 % 0 mm
12:19 21.7 °C 18.1 °C 1024.9 hPa ESE 6.4 km/h 19.3 km/h 80 % 0 mm
12:24 21.7 °C 17.9 °C 1024.9 hPa ENE 4.8 km/h 20.9 km/h 79 % 0 mm
12:29 21.7 °C 17.9 °C 1024.6 hPa SE 11.3 km/h 20.9 km/h 79 % 0 mm
12:34 21.9 °C 18.3 °C 1024.6 hPa SSE 6.4 km/h 20.9 km/h 80 % 0 mm
12:39 21.9 °C 18.1 °C 1024.6 hPa North 1.6 km/h 19.3 km/h 79 % 0 mm
12:40 21.9 °C 18.1 °C 1024.6 hPa SW 1.6 km/h 19.3 km/h 79 % 0 mm
12:44 22.1 °C 18.3 °C 1024.3 hPa ESE 6.4 km/h 19.3 km/h 79 % 0 mm
12:49 22.3 °C 18.3 °C 1024.3 hPa SE 4.8 km/h 17.7 km/h 78 % 0 mm
12:54 22.4 °C 18.4 °C 1024.3 hPa SE 4.8 km/h 19.3 km/h 78 % 0 mm
13:00 22.4 °C 18.2 °C 1024.3 hPa SSE 6.4 km/h 19.3 km/h 77 % 0 mm
13:05 22.5 °C 18.5 °C 1024.3 hPa SSE 6.4 km/h 19.3 km/h 78 % 0 mm
13:10 22.5 °C 18.3 °C 1024.3 hPa SSE 6.4 km/h 14.5 km/h 77 % 0 mm
13:15 22.3 °C 18.1 °C 1024.3 hPa ESE 4.8 km/h 14.5 km/h 77 % 0 mm
13:20 22.2 °C 18.2 °C 1023.9 hPa ESE 11.3 km/h 20.9 km/h 78 % 0 mm
13:25 22.4 °C 18.4 °C 1023.9 hPa ESE 6.4 km/h 22.5 km/h 78 % 0 mm
13:30 22.5 °C 18.3 °C 1023.6 hPa SSE 8 km/h 22.5 km/h 77 % 0 mm
13:35 22.6 °C 18.4 °C 1023.6 hPa East 4.8 km/h 22.5 km/h 77 % 0 mm
13:40 22.7 °C 18.7 °C 1023.6 hPa ESE 9.7 km/h 19.3 km/h 78 % 0 mm
13:41 22.7 °C 18.5 °C 1023.6 hPa SE 12.9 km/h 19.3 km/h 77 % 0 mm
13:46 22.5 °C 18.3 °C 1023.2 hPa ESE 6.4 km/h 19.3 km/h 77 % 0 mm
13:51 22.6 °C 18.6 °C 1023.2 hPa South 4.8 km/h 19.3 km/h 78 % 0 mm
13:56 22.8 °C 18.3 °C 1023.2 hPa SE 12.9 km/h 24.1 km/h 76 % 0 mm
14:01 22.6 °C 18.4 °C 1023.2 hPa SSE 8 km/h 24.1 km/h 77 % 0 mm
14:06 22.6 °C 18.6 °C 1023.2 hPa SE 14.5 km/h 24.1 km/h 78 % 0 mm
14:11 22.6 °C 18.6 °C 1022.9 hPa ESE 11.3 km/h 20.9 km/h 78 % 0 mm
14:16 22.6 °C 18.6 °C 1022.9 hPa SE 6.4 km/h 19.3 km/h 78 % 0 mm
14:21 22.7 °C 18.5 °C 1022.6 hPa SE 8 km/h 22.5 km/h 77 % 0 mm
14:26 22.7 °C 18.5 °C 1022.6 hPa SE 6.4 km/h 22.5 km/h 77 % 0 mm
14:31 22.6 °C 18.4 °C 1022.6 hPa SSE 12.9 km/h 22.5 km/h 77 % 0 mm
14:36 22.6 °C 18.8 °C 1022.6 hPa SE 4.8 km/h 17.7 km/h 79 % 0 mm
14:41 23 °C 18.7 °C 1022.2 hPa East 9.7 km/h 17.7 km/h 77 % 0 mm
14:46 23.3 °C 19.2 °C 1022.2 hPa SE 3.2 km/h 19.3 km/h 78 % 0 mm
14:51 23.4 °C 18.7 °C 1022.2 hPa ENE 11.3 km/h 19.3 km/h 75 % 0 mm
14:56 23.2 °C 18.5 °C 1022.2 hPa SSE 9.7 km/h 19.3 km/h 75 % 0 mm
15:01 23.2 °C 18.7 °C 1022.2 hPa East 11.3 km/h 17.7 km/h 76 % 0 mm
15:06 23.3 °C 18.8 °C 1022.2 hPa East 12.9 km/h 17.7 km/h 76 % 0 mm
15:11 23.3 °C 18.8 °C 1022.2 hPa East 6.4 km/h 17.7 km/h 76 % 0 mm
15:16 23.1 °C 18.6 °C 1022.2 hPa ESE 6.4 km/h 17.7 km/h 76 % 0 mm
15:21 22.8 °C 18.6 °C 1021.9 hPa South 8 km/h 19.3 km/h 77 % 0 mm
15:26 22.7 °C 18.7 °C 1021.9 hPa SE 4.8 km/h 19.3 km/h 78 % 0 mm
15:31 22.6 °C 18.6 °C 1021.9 hPa ESE 9.7 km/h 19.3 km/h 78 % 0 mm
15:36 22.4 °C 18.6 °C 1021.9 hPa SSW 12.9 km/h 17.7 km/h 79 % 0 mm
15:41 22.5 °C 18.7 °C 1021.6 hPa ENE 9.7 km/h 22.5 km/h 79 % 0 mm
15:46 22.6 °C 18.8 °C 1021.6 hPa SW 9.7 km/h 22.5 km/h 79 % 0 mm
15:51 22.4 °C 18.6 °C 1021.6 hPa SSE 1.6 km/h 22.5 km/h 79 % 0 mm
15:56 22.4 °C 18.8 °C 1021.6 hPa ESE 11.3 km/h 20.9 km/h 80 % 0 mm
16:02 22.6 °C 19 °C 1021.6 hPa East 17.7 km/h 20.9 km/h 80 % 0 mm
16:07 22.5 °C 18.7 °C 1021.6 hPa ENE 16.1 km/h 19.3 km/h 79 % 0 mm
16:12 22.5 °C 18.9 °C 1021.6 hPa East 12.9 km/h 19.3 km/h 80 % 0 mm
16:13 22.5 °C 18.9 °C 1021.6 hPa SE 9.7 km/h 19.3 km/h 80 % 0 mm
16:18 22.7 °C 18.7 °C 1021.6 hPa SE 6.4 km/h 19.3 km/h 78 % 0 mm
16:23 22.9 °C 18.7 °C 1021.6 hPa East 17.7 km/h 20.9 km/h 77 % 0 mm
16:28 23.2 °C 18.7 °C 1021.6 hPa SE 4.8 km/h 20.9 km/h 76 % 0 mm
16:33 23.4 °C 18.7 °C 1021.2 hPa South 9.7 km/h 24.1 km/h 75 % 0 mm
16:34 23.4 °C 18.7 °C 1021.2 hPa SSE 9.7 km/h 24.1 km/h 75 % 0 mm
16:39 23.3 °C 18.4 °C 1021.2 hPa SSE 11.3 km/h 24.1 km/h 74 % 0 mm
16:44 23.3 °C 18.6 °C 1021.2 hPa SSW 8 km/h 24.1 km/h 75 % 0 mm
16:49 23.2 °C 18.5 °C 1021.2 hPa SE 11.3 km/h 19.3 km/h 75 % 0 mm
16:54 23.1 °C 18.6 °C 1021.2 hPa East 3.2 km/h 19.3 km/h 76 % 0 mm
16:59 23.1 °C 18.6 °C 1021.2 hPa SE 4.8 km/h 14.5 km/h 76 % 0 mm
17:04 22.9 °C 18.4 °C 1021.2 hPa SSE 12.9 km/h 14.5 km/h 76 % 0 mm
17:09 23.1 °C 18.6 °C 1021.2 hPa SE 11.3 km/h 17.7 km/h 76 % 0 mm
17:14 23.1 °C 18.6 °C 1021.2 hPa South 9.7 km/h 17.7 km/h 76 % 0 mm
17:19 23.2 °C 18.7 °C 1021.2 hPa SSE 16.1 km/h 17.7 km/h 76 % 0 mm
17:24 23.3 °C 18.6 °C 1021.2 hPa ESE 11.3 km/h 20.9 km/h 75 % 0 mm
17:29 23.4 °C 18.7 °C 1021.2 hPa SE 9.7 km/h 20.9 km/h 75 % 0 mm
17:34 23.5 °C 18.8 °C 1020.9 hPa ESE 12.9 km/h 20.9 km/h 75 % 0 mm
17:39 23.4 °C 18.7 °C 1020.9 hPa SSE 11.3 km/h 20.9 km/h 75 % 0 mm
17:44 23.4 °C 18.7 °C 1020.9 hPa SE 6.4 km/h 20.9 km/h 75 % 0 mm
17:50 23.4 °C 18.7 °C 1020.9 hPa SE 16.1 km/h 24.1 km/h 75 % 0 mm
17:55 23.3 °C 18.6 °C 1020.9 hPa SSW 8 km/h 24.1 km/h 75 % 0 mm
18:00 23.3 °C 18.6 °C 1020.9 hPa SSE 6.4 km/h 24.1 km/h 75 % 0 mm
18:05 23.3 °C 18.6 °C 1020.9 hPa ESE 12.9 km/h 20.9 km/h 75 % 0 mm
18:10 23.2 °C 18.7 °C 1020.9 hPa East 17.7 km/h 22.5 km/h 76 % 0 mm
18:15 23.1 °C 18.6 °C 1020.9 hPa SE 9.7 km/h 22.5 km/h 76 % 0 mm
18:20 22.9 °C 18.4 °C 1020.9 hPa ESE 16.1 km/h 22.5 km/h 76 % 0 mm
18:25 22.9 °C 18.4 °C 1020.9 hPa SSW 9.7 km/h 24.1 km/h 76 % 0 mm
18:30 22.9 °C 18.4 °C 1020.9 hPa SE 6.4 km/h 24.1 km/h 76 % 0 mm
18:35 22.8 °C 18.3 °C 1020.9 hPa SE 19.3 km/h 24.1 km/h 76 % 0 mm
18:40 22.7 °C 18.5 °C 1020.5 hPa East 20.9 km/h 22.5 km/h 77 % 0 mm
18:45 22.6 °C 18.4 °C 1020.9 hPa SSE 11.3 km/h 22.5 km/h 77 % 0 mm
18:50 22.4 °C 18.4 °C 1020.9 hPa ESE 16.1 km/h 22.5 km/h 78 % 0 mm
18:55 22.3 °C 18.3 °C 1020.9 hPa South 14.5 km/h 24.1 km/h 78 % 0 mm
19:00 22.2 °C 18.2 °C 1020.9 hPa SSE 11.3 km/h 25.7 km/h 78 % 0 mm
19:05 22.2 °C 18.2 °C 1020.9 hPa SSW 14.5 km/h 25.7 km/h 78 % 0 mm
19:10 22.1 °C 18.3 °C 1020.9 hPa SE 14.5 km/h 25.7 km/h 79 % 0 mm
19:15 22 °C 18.2 °C 1020.9 hPa SSE 8 km/h 25.7 km/h 79 % 0 mm
19:20 21.9 °C 18.3 °C 1020.9 hPa SE 6.4 km/h 25.7 km/h 80 % 0 mm
19:25 21.8 °C 18.2 °C 1020.9 hPa South 12.9 km/h 19.3 km/h 80 % 0 mm
19:30 21.7 °C 18.3 °C 1020.9 hPa South 6.4 km/h 19.3 km/h 81 % 0 mm
19:35 21.6 °C 18.2 °C 1020.9 hPa South 11.3 km/h 22.5 km/h 81 % 0 mm
19:40 21.5 °C 18.3 °C 1020.9 hPa ESE 11.3 km/h 24.1 km/h 82 % 0 mm
19:45 21.4 °C 18.2 °C 1020.9 hPa SE 9.7 km/h 24.1 km/h 82 % 0 mm
19:50 21.4 °C 18.2 °C 1020.9 hPa SSE 8 km/h 24.1 km/h 82 % 0 mm
19:55 21.3 °C 18.1 °C 1020.9 hPa SSE 8 km/h 20.9 km/h 82 % 0 mm
20:00 21.3 °C 18.3 °C 1020.9 hPa SSW 8 km/h 20.9 km/h 83 % 0 mm
20:05 21.2 °C 18.2 °C 1020.9 hPa SSE 12.9 km/h 20.9 km/h 83 % 0 mm
20:10 21.1 °C 18.1 °C 1021.2 hPa SSE 3.2 km/h 19.3 km/h 83 % 0 mm
20:15 21.1 °C 18.3 °C 1021.2 hPa SE 4.8 km/h 19.3 km/h 84 % 0 mm
20:20 21.1 °C 18.3 °C 1020.9 hPa SSW 9.7 km/h 19.3 km/h 84 % 0 mm
20:25 20.9 °C 18.1 °C 1020.9 hPa SE 8 km/h 16.1 km/h 84 % 0 mm
20:30 20.9 °C 18.3 °C 1020.9 hPa ESE 8 km/h 19.3 km/h 85 % 0 mm
20:35 20.8 °C 18.2 °C 1020.9 hPa ESE 20.9 km/h 20.9 km/h 85 % 0 mm
20:40 20.8 °C 18.2 °C 1020.9 hPa SSE 9.7 km/h 20.9 km/h 85 % 0 mm
20:45 20.7 °C 18.3 °C 1020.9 hPa SE 9.7 km/h 20.9 km/h 86 % 0 mm
20:51 20.7 °C 18.3 °C 1020.9 hPa SSE 4.8 km/h 20.9 km/h 86 % 0 mm
20:55 20.5 °C 18.1 °C 1021.2 hPa SE 6.4 km/h 17.7 km/h 86 % 0 mm
21:00 20.4 °C 18.2 °C 1021.2 hPa SE 16.1 km/h 17.7 km/h 87 % 0 mm
21:06 20.4 °C 18.2 °C 1021.2 hPa ESE 14.5 km/h 17.7 km/h 87 % 0 mm
21:11 20.4 °C 18.2 °C 1021.6 hPa SSE 8 km/h 16.1 km/h 87 % 0 mm
21:16 20.3 °C 18.1 °C 1021.6 hPa SSE 6.4 km/h 16.1 km/h 87 % 0 mm
21:21 20.3 °C 18.1 °C 1021.6 hPa SE 11.3 km/h 16.1 km/h 87 % 0 mm
21:26 20.3 °C 18.2 °C 1021.2 hPa SSE 8 km/h 17.7 km/h 88 % 0 mm
21:31 20.3 °C 18.2 °C 1021.6 hPa SE 8 km/h 17.7 km/h 88 % 0 mm
21:36 20.2 °C 18.1 °C 1021.6 hPa SE 12.9 km/h 19.3 km/h 88 % 0 mm
21:41 20.2 °C 18.1 °C 1021.6 hPa ESE 8 km/h 19.3 km/h 88 % 0 mm
21:46 20.2 °C 18.1 °C 1021.6 hPa SE 9.7 km/h 19.3 km/h 88 % 0 mm
21:51 20.2 °C 18.1 °C 1021.6 hPa South 6.4 km/h 17.7 km/h 88 % 0 mm
21:56 20.1 °C 18.2 °C 1021.6 hPa SSE 6.4 km/h 17.7 km/h 89 % 0 mm
22:01 20.1 °C 18.2 °C 1021.6 hPa SE 6.4 km/h 16.1 km/h 89 % 0 mm
22:06 20.1 °C 18.2 °C 1021.6 hPa SE 6.4 km/h 16.1 km/h 89 % 0 mm
22:11 20.1 °C 18.2 °C 1021.6 hPa ESE 11.3 km/h 14.5 km/h 89 % 0 mm
22:16 20.1 °C 18.2 °C 1021.6 hPa SSW 6.4 km/h 14.5 km/h 89 % 0 mm
22:21 20.1 °C 18.2 °C 1021.6 hPa SSW 3.2 km/h 16.1 km/h 89 % 0 mm
22:26 20 °C 18.3 °C 1021.6 hPa SE 9.7 km/h 16.1 km/h 90 % 0 mm
22:31 20 °C 18.3 °C 1021.6 hPa SSE 6.4 km/h 16.1 km/h 90 % 0 mm
22:36 20.1 °C 18.4 °C 1021.6 hPa SSW 3.2 km/h 17.7 km/h 90 % 0 mm
22:41 20.1 °C 18.4 °C 1021.6 hPa SE 11.3 km/h 17.7 km/h 90 % 0 mm
22:46 20.1 °C 18.4 °C 1021.6 hPa SSE 11.3 km/h 17.7 km/h 90 % 0 mm
22:51 20.2 °C 18.5 °C 1021.6 hPa ESE 14.5 km/h 16.1 km/h 90 % 0 mm
22:56 20.2 °C 18.5 °C 1021.9 hPa SE 8 km/h 17.7 km/h 90 % 0 mm
23:01 20.2 °C 18.3 °C 1021.6 hPa South 8 km/h 17.7 km/h 89 % 0 mm
23:06 20.3 °C 18.4 °C 1021.6 hPa SSE 12.9 km/h 19.3 km/h 89 % 0 mm
23:11 20.3 °C 18.4 °C 1021.6 hPa ESE 14.5 km/h 20.9 km/h 89 % 0 mm
23:16 20.3 °C 18.4 °C 1021.6 hPa SSE 9.7 km/h 20.9 km/h 89 % 0 mm
23:21 20.4 °C 18.5 °C 1021.9 hPa SSE 6.4 km/h 20.9 km/h 89 % 0 mm
23:26 20.4 °C 18.5 °C 1021.6 hPa ESE 12.9 km/h 20.9 km/h 89 % 0 mm
23:31 20.4 °C 18.5 °C 1021.6 hPa SSE 11.3 km/h 20.9 km/h 89 % 0 mm
23:36 20.3 °C 18.4 °C 1021.6 hPa SSE 6.4 km/h 20.9 km/h 89 % 0 mm
23:41 20.3 °C 18.4 °C 1021.6 hPa South 9.7 km/h 20.9 km/h 89 % 0 mm
23:46 20.2 °C 18.3 °C 1021.6 hPa SSW 8 km/h 20.9 km/h 89 % 0 mm
23:51 20.2 °C 18.3 °C 1021.6 hPa South 11.3 km/h 20.9 km/h 89 % 0 mm
23:57 20.1 °C 18.2 °C 1021.6 hPa South 8 km/h 19.3 km/h 89 % 0 mm
Spring, Texas: Villages of Bridgestone
Compliments of Weather Underground - 2.75 mb

Script developed by  Jim McMurry - jmcmurry@mwt.net Adapted for the template by  Wim van der Kuil - Leuven-Template.eu

You find our weather info also at:

UK Metoffice

WeatherCloud

Weather Underground

Mid-South Weather Network

AWEKAS

Citizen Weather Observer Program (CWOP)

HAMweather, WeatherForYou, PWS Weather

Equipment we use:

Weather-station
Davis Vantage Vue

Weather-program
Meteohub

Weather-server
Debian 7.9 x86 (Guest)

Provider
DreamHost

Davis Vantage Vue

Meteohub

Debian 7.9 x86 (Guest)

DreamHost